Time;durP1;ratioP1;P1;durP2;ratioP2;P2;SDS_P1;SDS_P2;PMS_P1;PMS_P2;Temp;Humidity;BMP_temperature;BMP_pressure;BME280_temperature;BME280_humidity;BME280_pressure;Samples;Min_cycle;Max_cycle;Signal;HPM_P1;HPM_P2
2022/05/18 00:02:16;;;;;;;3.30;2.05;;;;;;;;;;5030723;28;20043;-59
2022/05/18 00:05:13;;;;;;;3.22;2.30;;;;;;;;;;5031026;28;20025;-59
2022/05/18 00:10:41;;;;;;;6.80;2.13;;;;;;;;;;5034866;28;20389;-59
2022/05/18 00:13:13;;;;;;;3.38;2.08;;;;;;;;;;5030423;28;20036;-59
2022/05/18 00:15:59;;;;;;;;;;;;;;;;;;;;;
2022/05/18 00:24:11;;;;;;;3.22;2.50;;;;;;;;;;5047661;28;20053;-59
2022/05/18 00:27:15;;;;;;;4.05;2.15;;;;;;;;;;5047837;28;20021;-59
2022/05/18 00:33:20;;;;;;;;;;;;;;;;;;;;;
2022/05/18 00:36:22;;;;;;;6.88;3.17;;;;;;;;;;5047556;28;20053;-59
2022/05/18 00:39:01;;;;;;;3.88;2.80;;;;;;;;;;5047610;28;20024;-59
2022/05/18 00:45:10;;;;;;;;;;;;;;;;;;;;;
2022/05/18 00:47:48;;;;;;;4.65;3.13;;;;;;;;;;5047983;28;20045;-59
2022/05/18 00:53:49;;;;;;;6.32;3.50;;;;;;;;;;5044297;28;20056;-59
2022/05/18 00:56:33;;;;;;;5.70;3.83;;;;;;;;;;5047062;28;20021;-59
2022/05/18 00:59:27;;;;;;;6.20;2.80;;;;;;;;;;5046465;28;20052;-59
2022/05/18 01:02:19;;;;;;;6.05;2.67;;;;;;;;;;5046717;28;20038;-59
2022/05/18 01:04:53;;;;;;;6.70;3.05;;;;;;;;;;5047997;28;20383;-59
2022/05/18 01:07:43;;;;;;;3.70;2.67;;;;;;;;;;5046978;28;20120;-59
2022/05/18 01:10:10;;;;;;;;;;;;;;;;;;5048150;28;20483;-59
2022/05/18 01:12:39;;;;;;;5.60;2.63;;;;;;;;;;5048151;28;19991;-59
2022/05/18 01:15:25;;;;;;;3.85;3.00;;;;;;;;;;5047502;28;20052;-59
2022/05/18 01:27:33;;;;;;;4.13;3.10;;;;;;;;;;5005807;28;20062;-59
2022/05/18 01:30:11;;;;;;;5.93;3.50;;;;;;;;;;5006291;28;20037;-59
2022/05/18 01:33:10;;;;;;;3.92;2.75;;;;;;;;;;5041576;28;20037;-59
2022/05/18 01:35:49;;;;;;;6.15;2.72;;;;;;;;;;5044058;28;20037;-59
2022/05/18 01:38:19;;;;;;;5.97;3.17;;;;;;;;;;5045927;28;20093;-59
2022/05/18 01:50:46;;;;;;;7.05;3.83;;;;;;;;;;4928446;29;20036;-59
2022/05/18 01:53:30;;;;;;;4.38;3.40;;;;;;;;;;4913150;29;20067;-59
2022/05/18 01:56:14;;;;;;;4.18;3.42;;;;;;;;;;4912547;29;20036;-58
2022/05/18 01:58:50;;;;;;;6.75;3.58;;;;;;;;;;4889169;29;20191;-59
2022/05/18 02:01:26;;;;;;;4.30;3.15;;;;;;;;;;4890790;29;20048;-59
2022/05/18 02:06:48;;;;;;;4.33;3.47;;;;;;;;;;4892518;29;20437;-59
2022/05/18 02:09:20;;;;;;;3.88;2.78;;;;;;;;;;4985236;28;20435;-59
2022/05/18 02:15:04;;;;;;;3.83;2.95;;;;;;;;;;4908499;29;20083;-59
2022/05/18 02:23:47;;;;;;;3.33;2.53;;;;;;;;;;4985665;28;20039;-59
2022/05/18 02:26:29;;;;;;;3.92;2.72;;;;;;;;;;4985430;28;20046;-59
2022/05/18 02:32:15;;;;;;;4.85;3.67;;;;;;;;;;5004617;28;20034;-59
2022/05/18 02:34:47;;;;;;;3.92;3.08;;;;;;;;;;5023358;28;20037;-59
2022/05/18 02:37:42;;;;;;;4.88;3.15;;;;;;;;;;5027000;28;20583;-59
2022/05/18 02:43:40;;;;;;;6.35;4.05;;;;;;;;;;5024786;28;20030;-59
2022/05/18 02:46:16;;;;;;;4.35;3.38;;;;;;;;;;5025060;28;20033;-59
2022/05/18 02:49:23;;;;;;;6.47;4.22;;;;;;;;;;5026885;28;20017;-59
2022/05/18 02:58:10;;;;;;;;;;;;;;;;;;;;;
2022/05/18 03:01:01;;;;;;;7.65;3.65;;;;;;;;;;5041833;28;20064;-59
2022/05/18 03:03:56;;;;;;;7.47;4.05;;;;;;;;;;5046146;28;20025;-59
2022/05/18 03:06:23;;;;;;;5.75;3.55;;;;;;;;;;5028825;28;20049;-58
2022/05/18 03:09:17;;;;;;;4.97;3.58;;;;;;;;;;5046893;28;20439;-59
2022/05/18 03:12:04;;;;;;;5.28;3.83;;;;;;;;;;5047620;28;20471;-58
2022/05/18 03:14:52;;;;;;;4.18;3.00;;;;;;;;;;5006551;28;20498;-59
2022/05/18 03:18:08;;;;;;;8.00;3.50;;;;;;;;;;5027917;28;20025;-59
2022/05/18 03:23:45;;;;;;;5.53;4.10;;;;;;;;;;5045968;28;20072;-59
2022/05/18 03:26:44;;;;;;;;;;;;;;;;;;;;;
2022/05/18 03:29:10;;;;;;;3.75;3.33;;;;;;;;;;5000521;28;20097;-59
2022/05/18 03:37:56;;;;;;;6.93;4.65;;;;;;;;;;5038445;28;20030;-59
2022/05/18 03:40:38;;;;;;;5.15;3.60;;;;;;;;;;5039048;28;20455;-59
2022/05/18 03:46:21;;;;;;;6.35;3.97;;;;;;;;;;4977080;28;20031;-59
2022/05/18 03:49:03;;;;;;;4.72;3.58;;;;;;;;;;4977465;28;20026;-59
2022/05/18 03:51:50;;;;;;;6.03;4.68;;;;;;;;;;4983278;28;20042;-59
2022/05/18 03:54:34;;;;;;;;;;;;;;;;;;;;;
2022/05/18 03:57:34;;;;;;;4.45;3.78;;;;;;;;;;4995974;28;20022;-59
2022/05/18 04:00:33;;;;;;;7.13;3.90;;;;;;;;;;4918939;29;20051;-58
2022/05/18 04:03:03;;;;;;;5.15;3.47;;;;;;;;;;4903906;29;20495;-59
2022/05/18 04:05:30;;;;;;;6.38;4.10;;;;;;;;;;4919061;29;20044;-59
2022/05/18 04:08:10;;;;;;;6.30;3.42;;;;;;;;;;4948011;28;20105;-58
2022/05/18 04:13:42;;;;;;;5.00;4.03;;;;;;;;;;4900257;29;20039;-59
2022/05/18 04:16:29;;;;;;;4.90;3.72;;;;;;;;;;4945578;29;20031;-59
2022/05/18 04:19:01;;;;;;;7.82;4.43;;;;;;;;;;4956677;28;20034;-59
2022/05/18 04:24:39;;;;;;;5.15;3.80;;;;;;;;;;4975669;28;20039;-59
2022/05/18 04:27:26;;;;;;;6.43;4.63;;;;;;;;;;4980064;28;20066;-59
2022/05/18 04:30:28;;;;;;;4.97;4.00;;;;;;;;;;4975420;28;20122;-58
2022/05/18 04:33:42;;;;;;;;;;;;;;;;;;;;;
2022/05/18 04:36:25;;;;;;;5.80;4.70;;;;;;;;;;4986982;28;20098;-58
2022/05/18 04:41:56;;;;;;;4.82;4.05;;;;;;;;;;4984485;28;20528;-58
2022/05/18 04:48:06;;;;;;;;;;;;;;;;;;;;;
2022/05/18 04:50:38;;;;;;;4.55;3.10;;;;;;;;;;4987079;28;20131;-58
2022/05/18 04:58:58;;;;;;;5.05;3.10;;;;;;;;;;5027088;28;20041;-59
2022/05/18 05:01:45;;;;;;;3.35;2.60;;;;;;;;;;5027025;28;20053;-57
2022/05/18 05:04:36;;;;;;;4.45;3.08;;;;;;;;;;5028576;28;20026;-59
2022/05/18 05:07:16;;;;;;;2.95;2.13;;;;;;;;;;5028516;28;20022;-59
2022/05/18 05:15:54;;;;;;;2.55;1.83;;;;;;;;;;5019717;28;20021;-59
2022/05/18 05:18:39;;;;;;;4.05;2.50;;;;;;;;;;5027156;28;20041;-59
2022/05/18 05:21:31;;;;;;;3.63;2.05;;;;;;;;;;5027236;28;20041;-59
2022/05/18 05:24:26;;;;;;;5.63;2.33;;;;;;;;;;5026352;28;20100;-59
2022/05/18 05:27:02;;;;;;;5.22;3.03;;;;;;;;;;5025833;28;20038;-59
2022/05/18 05:29:52;;;;;;;3.45;2.30;;;;;;;;;;5026517;28;20057;-59
2022/05/18 05:32:42;;;;;;;4.05;2.47;;;;;;;;;;5018790;28;20032;-58
2022/05/18 05:35:46;;;;;;;5.43;2.70;;;;;;;;;;5015881;28;20502;-58
2022/05/18 05:41:46;;;;;;;4.18;2.28;;;;;;;;;;4956167;28;20078;-59
2022/05/18 05:47:45;;;;;;;4.30;2.08;;;;;;;;;;5013371;28;20126;-59
2022/05/18 05:50:40;;;;;;;8.65;2.72;;;;;;;;;;5013774;28;20037;-59
2022/05/18 05:53:21;;;;;;;11.27;3.35;;;;;;;;;;5018274;28;20033;-58
2022/05/18 05:55:54;;;;;;;3.83;2.45;;;;;;;;;;5015286;28;20108;-59
2022/05/18 05:58:26;;;;;;;8.32;3.50;;;;;;;;;;5017323;28;20392;-58
2022/05/18 06:04:25;;;;;;;4.38;2.22;;;;;;;;;;4954888;29;20023;-58
2022/05/18 06:07:25;;;;;;;3.83;2.65;;;;;;;;;;5013800;28;20034;-58
2022/05/18 06:10:09;;;;;;;4.40;3.13;;;;;;;;;;4975358;28;20477;-58
2022/05/18 06:12:50;;;;;;;5.72;4.05;;;;;;;;;;4977297;28;20270;-58
2022/05/18 06:15:27;;;;;;;4.28;3.05;;;;;;;;;;5008977;28;20022;-58
2022/05/18 06:18:02;;;;;;;4.95;3.30;;;;;;;;;;4993012;28;20038;-58
2022/05/18 06:20:34;;;;;;;3.63;2.75;;;;;;;;;;4993021;28;20066;-58
2022/05/18 06:23:47;;;;;;;6.13;3.53;;;;;;;;;;4992941;28;20097;-58
2022/05/18 06:26:29;;;;;;;;;;;;;;;;;;;;;
2022/05/18 06:29:26;;;;;;;4.72;2.30;;;;;;;;;;4992508;28;20023;-58
2022/05/18 06:32:05;;;;;;;5.00;2.88;;;;;;;;;;4982984;28;20492;-58
2022/05/18 06:34:50;;;;;;;3.83;2.53;;;;;;;;;;5002504;28;20034;-58
2022/05/18 06:38:06;;;;;;;;;;;;;;;;;;;;;
2022/05/18 06:43:23;;;;;;;6.28;2.60;;;;;;;;;;5026020;28;20053;-59
2022/05/18 06:46:03;;;;;;;3.00;2.50;;;;;;;;;;5025685;28;20018;-59
2022/05/18 06:48:51;;;;;;;2.78;1.90;;;;;;;;;;5002042;28;20404;-59
2022/05/18 06:51:33;;;;;;;6.38;3.40;;;;;;;;;;5002911;28;20030;-60
2022/05/18 06:57:35;;;;;;;4.15;2.38;;;;;;;;;;4944594;29;20150;-59
2022/05/18 07:06:17;;;;;;;;;;;;;;;;;;;;;
2022/05/18 07:09:07;;;;;;;6.78;3.00;;;;;;;;;;5011607;28;20677;-60
2022/05/18 07:12:15;;;;;;;5.03;2.47;;;;;;;;;;5015943;28;20037;-60
2022/05/18 07:17:55;;;;;;;;;;;;;;;;;;;;;
2022/05/18 07:20:53;;;;;;;;;;;;;;;;;;;;;
2022/05/18 07:23:32;;;;;;;2.85;2.53;;;;;;;;;;5043053;28;20112;-58
2022/05/18 07:29:34;;;;;;;7.40;3.10;;;;;;;;;;5027182;28;20042;-58
2022/05/18 07:32:13;;;;;;;3.40;2.42;;;;;;;;;;5032691;28;20052;-58
2022/05/18 07:34:47;;;;;;;5.68;2.65;;;;;;;;;;5032350;28;20065;-58
2022/05/18 07:37:34;;;;;;;8.18;2.47;;;;;;;;;;5034011;28;20371;-58
2022/05/18 07:40:33;;;;;;;4.15;2.17;;;;;;;;;;4967990;28;20061;-58
2022/05/18 07:45:59;;;;;;;4.05;2.67;;;;;;;;;;5028150;28;20120;-58
2022/05/18 07:48:48;;;;;;;;;;;;;;;;;;;;;
2022/05/18 07:51:21;;;;;;;3.47;2.20;;;;;;;;;;5022035;28;20459;-57
2022/05/18 07:54:06;;;;;;;;;;;;;;;;;;;;;
2022/05/18 08:03:12;;;;;;;3.03;1.77;;;;;;;;;;5033638;28;20383;-59
2022/05/18 08:06:25;;;;;;;4.10;2.67;;;;;;;;;;5015610;28;20116;-58
2022/05/18 08:15:11;;;;;;;3.25;1.85;;;;;;;;;;5037631;28;20057;-59
2022/05/18 08:18:00;;;;;;;2.78;1.95;;;;;;;;;;5019673;28;20053;-59
2022/05/18 08:20:55;;;;;;;3.33;2.20;;;;;;;;;;5009877;28;20047;-59
2022/05/18 08:26:56;;;;;;;3.78;2.30;;;;;;;;;;5031301;28;20398;-59
2022/05/18 08:29:37;;;;;;;2.83;2.05;;;;;;;;;;5037970;28;20486;-59
2022/05/18 08:32:14;;;;;;;6.60;2.13;;;;;;;;;;5037985;28;20463;-59
2022/05/18 08:35:28;;;;;;;4.45;2.78;;;;;;;;;;5037816;28;20451;-59
2022/05/18 08:38:16;;;;;;;;;;;;;;;;;;;;;
2022/05/18 08:44:17;;;;;;;10.00;3.03;;;;;;;;;;5033354;28;20032;-59
2022/05/18 08:50:07;;;;;;;4.75;2.67;;;;;;;;;;5012124;28;20037;-59
2022/05/18 08:52:37;;;;;;;;;;;;;;;;;;5036967;28;20148;-59
2022/05/18 08:55:25;;;;;;;4.60;2.30;;;;;;;;;;5051219;28;19916;-59
2022/05/18 08:58:01;;;;;;;3.75;2.50;;;;;;;;;;5017718;28;20033;-59
2022/05/18 09:01:17;;;;;;;3.60;2.35;;;;;;;;;;5036125;28;20053;-59
2022/05/18 09:03:58;;;;;;;3.33;2.45;;;;;;;;;;5032533;28;20120;-59
2022/05/18 09:13:23;;;;;;;3.22;2.05;;;;;;;;;;4955652;29;20576;-59
2022/05/18 09:16:26;;;;;;;4.45;2.47;;;;;;;;;;4966946;28;20075;-59
2022/05/18 09:19:21;;;;;;;3.80;2.33;;;;;;;;;;4971173;28;20524;-59
2022/05/18 09:22:18;;;;;;;;;;;;;;;;;;;;;
2022/05/18 09:25:06;;;;;;;4.13;2.67;;;;;;;;;;5014298;28;20048;-59
2022/05/18 09:27:48;;;;;;;3.80;2.28;;;;;;;;;;5017286;28;20394;-59
2022/05/18 09:30:56;;;;;;;5.95;2.47;;;;;;;;;;5035884;28;20029;-59
2022/05/18 09:33:44;;;;;;;3.53;2.20;;;;;;;;;;5014950;28;20483;-59
2022/05/18 09:36:30;;;;;;;2.78;2.00;;;;;;;;;;5035771;28;20022;-59
2022/05/18 09:39:37;;;;;;;4.18;2.35;;;;;;;;;;5035650;28;20030;-59
2022/05/18 09:42:16;;;;;;;3.30;1.95;;;;;;;;;;4993725;28;20089;-59
2022/05/18 09:48:15;;;;;;;5.18;2.25;;;;;;;;;;5026231;28;20022;-59
2022/05/18 09:50:55;;;;;;;3.38;2.20;;;;;;;;;;5035828;28;20075;-59
2022/05/18 09:53:55;;;;;;;;;;;;;;;;;;;;;
2022/05/18 09:56:40;;;;;;;5.32;3.05;;;;;;;;;;5035198;28;20132;-59
2022/05/18 09:59:35;;;;;;;3.00;2.53;;;;;;;;;;5049580;28;20041;-60
2022/05/18 10:11:15;;;;;;;2.78;1.73;;;;;;;;;;5035415;28;20044;-59
2022/05/18 10:13:53;;;;;;;3.33;2.00;;;;;;;;;;5028569;28;20039;-59
2022/05/18 10:17:11;;;;;;;3.08;1.55;;;;;;;;;;5035350;28;20025;-59
2022/05/18 10:23:20;;;;;;;3.20;2.10;;;;;;;;;;5034940;28;20028;-59
2022/05/18 10:29:06;;;;;;;3.40;1.92;;;;;;;;;;5032737;28;20029;-59
2022/05/18 10:32:06;;;;;;;;;;;;;;;;;;;;;
2022/05/18 10:34:50;;;;;;;3.85;2.10;;;;;;;;;;5035008;28;20438;-59
2022/05/18 10:37:45;;;;;;;3.50;2.25;;;;;;;;;;5034532;28;20487;-59
2022/05/18 10:40:39;;;;;;;3.95;2.10;;;;;;;;;;5034943;28;20029;-59
2022/05/18 10:43:33;;;;;;;2.78;2.03;;;;;;;;;;5034580;28;20045;-59
2022/05/18 10:46:15;;;;;;;2.60;1.48;;;;;;;;;;5034678;28;20151;-59
2022/05/18 10:49:02;;;;;;;3.65;1.83;;;;;;;;;;5034820;28;20079;-59
2022/05/18 10:51:41;;;;;;;3.00;2.10;;;;;;;;;;5030637;28;20060;-59
2022/05/18 10:54:48;;;;;;;7.65;2.38;;;;;;;;;;5033806;28;20372;-59
2022/05/18 10:57:29;;;;;;;;;;;;;;;;;;;;;
2022/05/18 11:03:22;;;;;;;2.00;1.33;;;;;;;;;;4992363;28;20116;-59
2022/05/18 11:06:29;;;;;;;4.90;2.25;;;;;;;;;;4975808;28;20500;-59
2022/05/18 11:09:18;;;;;;;2.30;1.30;;;;;;;;;;5017023;28;20030;-59
2022/05/18 11:12:00;;;;;;;;;;;;;;;;;;5034699;28;20112;-59
2022/05/18 11:14:49;;;;;;;3.63;1.77;;;;;;;;;;5048497;28;20408;-59
2022/05/18 11:17:40;;;;;;;2.95;2.33;;;;;;;;;;4992323;28;20031;-59
2022/05/18 11:20:56;;;;;;;2.38;1.73;;;;;;;;;;4991919;28;20038;-59
2022/05/18 11:23:34;;;;;;;2.40;1.70;;;;;;;;;;4992016;28;20069;-59
2022/05/18 11:29:28;;;;;;;3.20;2.08;;;;;;;;;;4992404;28;20540;-59
2022/05/18 11:32:34;;;;;;;3.27;1.87;;;;;;;;;;4914113;29;20462;-59
2022/05/18 11:35:38;;;;;;;;;;;;;;;;;;;;;
2022/05/18 11:38:44;;;;;;;;;;;;;;;;;;;;;
2022/05/18 11:41:43;;;;;;;6.63;2.15;;;;;;;;;;4915905;29;20037;-59
2022/05/18 11:47:25;;;;;;;3.72;2.00;;;;;;;;;;4937726;29;20032;-59
2022/05/18 11:53:33;;;;;;;2.85;1.75;;;;;;;;;;5037100;28;20068;-59
2022/05/18 11:56:21;;;;;;;7.18;2.33;;;;;;;;;;5019086;28;20063;-59
2022/05/18 12:11:43;;;;;;;3.33;1.70;;;;;;;;;;5037288;28;20040;-59
2022/05/18 12:14:30;;;;;;;3.67;1.40;;;;;;;;;;5037229;28;20014;-59
2022/05/18 12:17:16;;;;;;;2.50;1.67;;;;;;;;;;5036990;28;20029;-59
2022/05/18 12:20:04;;;;;;;2.63;1.83;;;;;;;;;;5036783;28;20042;-59
2022/05/18 12:22:38;;;;;;;3.78;1.98;;;;;;;;;;5036940;28;20187;-59
2022/05/18 12:25:29;;;;;;;3.72;1.95;;;;;;;;;;5037167;28;20025;-59
2022/05/18 12:28:41;;;;;;;;;;;;;;;;;;;;;
2022/05/18 12:34:20;;;;;;;5.80;2.30;;;;;;;;;;5037009;28;20036;-59
2022/05/18 12:37:21;;;;;;;3.88;1.45;;;;;;;;;;5037598;28;20053;-59
2022/05/18 12:40:11;;;;;;;3.47;2.38;;;;;;;;;;4997683;28;20042;-59
2022/05/18 12:43:12;;;;;;;;;;;;;;;;;;;;;
2022/05/18 12:46:05;;;;;;;3.58;1.52;;;;;;;;;;5029928;28;20080;-59
2022/05/18 12:49:06;;;;;;;2.40;1.58;;;;;;;;;;5033281;28;20387;-59
2022/05/18 12:52:04;;;;;;;3.45;1.83;;;;;;;;;;5018436;28;20033;-59
2022/05/18 12:54:54;;;;;;;3.08;1.30;;;;;;;;;;5037136;28;20026;-59
2022/05/18 13:00:35;;;;;;;5.78;2.05;;;;;;;;;;5037131;28;20057;-59
2022/05/18 13:06:36;;;;;;;5.68;2.38;;;;;;;;;;5032150;28;20037;-59
2022/05/18 13:12:24;;;;;;;2.85;1.65;;;;;;;;;;5035529;28;20028;-59
2022/05/18 13:15:03;;;;;;;3.47;1.52;;;;;;;;;;5036549;28;20368;-59
2022/05/18 13:17:54;;;;;;;3.90;1.90;;;;;;;;;;5017596;28;20480;-59
2022/05/18 13:20:40;;;;;;;1.55;1.02;;;;;;;;;;5035001;28;20453;-59
2022/05/18 13:26:30;;;;;;;5.13;1.35;;;;;;;;;;5027024;28;20427;-59
2022/05/18 13:29:12;;;;;;;;;;;;;;;;;;;;;
2022/05/18 13:31:52;;;;;;;7.85;2.17;;;;;;;;;;5032171;28;20382;-59
2022/05/18 13:34:30;;;;;;;4.55;1.85;;;;;;;;;;5035452;28;20456;-59
2022/05/18 13:37:08;;;;;;;;;;;;;;;;;;;;;
2022/05/18 13:39:45;;;;;;;2.40;1.40;;;;;;;;;;5008237;28;20040;-59
2022/05/18 13:42:50;;;;;;;;;;;;;;;;;;;;;
2022/05/18 13:45:22;;;;;;;3.10;1.58;;;;;;;;;;5035813;28;20021;-59
2022/05/18 13:48:15;;;;;;;5.32;1.80;;;;;;;;;;5035243;28;20371;-59
2022/05/18 13:51:04;;;;;;;2.63;1.70;;;;;;;;;;5035916;28;20059;-59
2022/05/18 13:57:08;;;;;;;5.22;1.83;;;;;;;;;;4998213;28;20389;-59
2022/05/18 13:59:48;;;;;;;8.63;2.25;;;;;;;;;;5001404;28;20045;-59
2022/05/18 14:02:46;;;;;;;3.67;1.67;;;;;;;;;;5035701;28;20030;-59
2022/05/18 14:05:32;;;;;;;2.30;1.63;;;;;;;;;;4993781;28;20030;-59
2022/05/18 14:08:01;;;;;;;3.42;1.70;;;;;;;;;;5026276;28;20060;-59
2022/05/18 14:10:54;;;;;;;3.25;1.63;;;;;;;;;;5034649;28;20113;-59
2022/05/18 14:13:40;;;;;;;;;;;;;;;;;;;;;
2022/05/18 14:16:22;;;;;;;2.70;1.60;;;;;;;;;;4954635;28;20037;-59
2022/05/18 14:19:17;;;;;;;5.07;3.60;;;;;;;;;;5017908;28;20092;-59
2022/05/18 14:21:59;;;;;;;2.47;1.65;;;;;;;;;;5014561;28;20049;-59
2022/05/18 14:24:37;;;;;;;2.65;1.70;;;;;;;;;;5002239;28;20471;-59
2022/05/18 14:27:32;;;;;;;5.18;2.10;;;;;;;;;;5049953;28;20036;-59
2022/05/18 14:30:10;;;;;;;7.00;1.88;;;;;;;;;;5045637;28;20041;-59
2022/05/18 14:33:04;;;;;;;3.97;1.98;;;;;;;;;;4999885;28;20475;-59
2022/05/18 14:35:48;;;;;;;;;;;;;;;;;;;;;
2022/05/18 14:38:28;;;;;;;5.55;2.30;;;;;;;;;;5026702;28;20037;-59
2022/05/18 14:41:12;;;;;;;6.15;3.20;;;;;;;;;;5034971;28;20092;-59
2022/05/18 14:43:40;;;;;;;2.42;1.65;;;;;;;;;;5034607;28;20032;-59
2022/05/18 14:46:29;;;;;;;3.03;2.10;;;;;;;;;;5015147;28;20531;-59
2022/05/18 14:49:26;;;;;;;4.00;2.43;;;;;;;;;;5021342;28;20045;-59
2022/05/18 14:52:24;;;;;;;3.95;2.88;;;;;;;;;;5047972;28;20120;-59
2022/05/18 14:55:09;;;;;;;3.10;2.42;;;;;;;;;;5049519;28;20340;-59
2022/05/18 14:58:04;;;;;;;3.63;2.38;;;;;;;;;;5033627;28;20037;-59
2022/05/18 15:00:55;;;;;;;4.93;2.20;;;;;;;;;;5018876;28;20060;-59
2022/05/18 15:03:32;;;;;;;3.85;2.05;;;;;;;;;;5043899;28;20430;-59
2022/05/18 15:06:15;;;;;;;4.95;2.75;;;;;;;;;;5033516;28;20041;-59
2022/05/18 15:09:26;;;;;;;;;;;;;;;;;;;;;
2022/05/18 15:12:00;;;;;;;4.10;2.03;;;;;;;;;;5032846;28;20034;-59
2022/05/18 15:14:39;;;;;;;2.78;1.67;;;;;;;;;;5034117;28;20026;-59
2022/05/18 15:17:17;;;;;;;5.90;2.95;;;;;;;;;;5048904;28;20108;-59
2022/05/18 15:20:04;;;;;;;3.80;1.95;;;;;;;;;;5033294;28;20033;-59
2022/05/18 15:22:43;;;;;;;3.80;2.17;;;;;;;;;;5036985;28;20481;-59
2022/05/18 15:29:00;;;;;;;3.75;1.70;;;;;;;;;;5028467;28;20116;-59
2022/05/18 15:31:51;;;;;;;3.80;1.65;;;;;;;;;;5037373;28;20032;-59
2022/05/18 15:34:36;;;;;;;6.05;3.00;;;;;;;;;;5052881;28;20483;-59
2022/05/18 15:37:23;;;;;;;2.42;1.67;;;;;;;;;;5038424;28;20426;-59
2022/05/18 15:45:56;;;;;;;3.78;1.95;;;;;;;;;;5016252;28;20025;-59
2022/05/18 15:48:50;;;;;;;2.28;1.48;;;;;;;;;;5036539;28;20045;-59
2022/05/18 15:51:20;;;;;;;2.72;1.92;;;;;;;;;;5037350;28;20029;-59
2022/05/18 15:54:12;;;;;;;5.00;2.38;;;;;;;;;;5052347;28;20025;-59
2022/05/18 15:57:11;;;;;;;3.80;2.33;;;;;;;;;;5032996;28;20065;-59
2022/05/18 15:59:53;;;;;;;;;;;;;;;;;;;;;
2022/05/18 16:02:22;;;;;;;3.08;2.17;;;;;;;;;;5017031;28;20033;-59
2022/05/18 16:08:06;;;;;;;3.13;1.58;;;;;;;;;;4994688;28;20114;-59
2022/05/18 16:10:47;;;;;;;3.53;2.25;;;;;;;;;;5017614;28;20030;-60
2022/05/18 16:13:42;;;;;;;2.45;1.98;;;;;;;;;;5000032;28;20056;-59
2022/05/18 16:16:17;;;;;;;3.90;2.08;;;;;;;;;;5015968;28;20088;-59
2022/05/18 16:19:21;;;;;;;3.38;2.00;;;;;;;;;;5017394;28;20033;-59
2022/05/18 16:25:00;;;;;;;2.40;1.55;;;;;;;;;;5017248;28;20049;-59
2022/05/18 16:27:53;;;;;;;3.03;1.73;;;;;;;;;;5016722;28;20033;-61
2022/05/18 16:30:37;;;;;;;2.63;1.30;;;;;;;;;;5018060;28;20123;-59
2022/05/18 16:33:20;;;;;;;4.50;1.05;;;;;;;;;;4998810;28;20184;-59
2022/05/18 16:38:50;;;;;;;2.33;1.25;;;;;;;;;;5006017;28;20037;-59
2022/05/18 16:44:35;;;;;;;3.97;1.73;;;;;;;;;;5016765;28;20038;-59
2022/05/18 16:47:11;;;;;;;3.45;2.05;;;;;;;;;;4999060;28;20029;-59
2022/05/18 16:50:01;;;;;;;2.22;1.20;;;;;;;;;;4999071;28;20088;-59
2022/05/18 16:52:27;;;;;;;2.20;1.70;;;;;;;;;;5017087;28;20030;-59
2022/05/18 16:55:07;;;;;;;3.42;1.90;;;;;;;;;;5014868;28;20129;-59
2022/05/18 16:58:05;;;;;;;2.72;1.90;;;;;;;;;;5000547;28;20026;-60
2022/05/18 17:01:25;;;;;;;;;;;;;;;;;;;;;
2022/05/18 17:04:01;;;;;;;2.72;1.77;;;;;;;;;;5036623;28;20033;-59
2022/05/18 17:06:36;;;;;;;2.35;1.85;;;;;;;;;;5036839;28;20349;-59
2022/05/18 17:12:02;;;;;;;3.33;2.20;;;;;;;;;;5019518;28;20030;-59
2022/05/18 17:17:45;;;;;;;3.10;1.90;;;;;;;;;;4993624;28;20031;-60
2022/05/18 17:26:23;;;;;;;5.72;2.05;;;;;;;;;;4936201;29;20023;-59
2022/05/18 17:29:14;;;;;;;2.92;2.08;;;;;;;;;;4988439;28;20042;-59
2022/05/18 17:31:46;;;;;;;6.50;2.17;;;;;;;;;;4962331;28;20026;-60
2022/05/18 17:37:56;;;;;;;2.50;1.63;;;;;;;;;;4993645;28;20034;-59
2022/05/18 17:40:34;;;;;;;5.25;2.20;;;;;;;;;;4966067;28;20365;-59
2022/05/18 17:43:33;;;;;;;3.63;1.92;;;;;;;;;;5034868;28;20025;-59
2022/05/18 17:46:28;;;;;;;2.67;1.83;;;;;;;;;;5033400;28;20071;-59
2022/05/18 17:49:14;;;;;;;3.13;2.10;;;;;;;;;;5034184;28;20033;-59
2022/05/18 17:52:15;;;;;;;3.55;1.95;;;;;;;;;;5050317;28;20040;-59
2022/05/18 17:55:06;;;;;;;3.03;1.75;;;;;;;;;;5000379;28;20037;-59
2022/05/18 17:57:46;;;;;;;4.82;2.17;;;;;;;;;;5035357;28;20180;-59
2022/05/18 18:00:41;;;;;;;2.78;1.95;;;;;;;;;;5049117;28;20364;-59
2022/05/18 18:03:39;;;;;;;2.47;1.85;;;;;;;;;;5035090;28;20026;-59
2022/05/18 18:06:09;;;;;;;4.13;2.45;;;;;;;;;;5004555;28;20483;-59
2022/05/18 18:11:53;;;;;;;4.22;2.28;;;;;;;;;;5027411;28;20067;-59
2022/05/18 18:14:37;;;;;;;3.25;2.17;;;;;;;;;;5034757;28;20029;-59
2022/05/18 18:17:15;;;;;;;2.67;1.60;;;;;;;;;;5050592;28;20028;-59
2022/05/18 18:19:52;;;;;;;2.47;1.55;;;;;;;;;;5034311;28;20029;-59
2022/05/18 18:22:30;;;;;;;3.00;2.00;;;;;;;;;;5035569;28;20033;-59
2022/05/18 18:27:55;;;;;;;2.88;2.00;;;;;;;;;;5034947;28;20041;-59
2022/05/18 18:30:33;;;;;;;6.38;2.42;;;;;;;;;;5047502;28;20042;-59
2022/05/18 18:33:05;;;;;;;2.50;2.00;;;;;;;;;;5035212;28;20040;-60
2022/05/18 18:36:16;;;;;;;3.40;2.25;;;;;;;;;;5031460;28;20147;-59
2022/05/18 18:39:10;;;;;;;4.28;2.55;;;;;;;;;;5016731;28;20034;-59
2022/05/18 18:41:59;;;;;;;6.40;2.10;;;;;;;;;;5017626;28;20041;-59
2022/05/18 18:44:41;;;;;;;2.75;2.05;;;;;;;;;;5034273;28;20030;-59
2022/05/18 18:47:34;;;;;;;2.97;1.75;;;;;;;;;;5049459;28;20367;-59
2022/05/18 18:54:41;;;;;;;5.55;2.10;;;;;;;;;;5048092;28;20103;-59
2022/05/18 18:56:07;;;;;;;2.85;1.98;;;;;;;;;;5034879;28;20045;-60
2022/05/18 18:59:20;;;;;;;;;;;;;;;;;;;;;
2022/05/18 19:05:29;;;;;;;2.67;1.70;;;;;;;;;;4997290;28;20507;-60
2022/05/18 19:08:16;;;;;;;3.53;2.08;;;;;;;;;;4995860;28;20044;-60
2022/05/18 19:10:59;;;;;;;;;;;;;;;;;;;;;
2022/05/18 19:13:46;;;;;;;4.75;2.50;;;;;;;;;;5035087;28;20124;-60
2022/05/18 19:16:36;;;;;;;3.00;1.88;;;;;;;;;;5034814;28;20475;-60
2022/05/18 19:19:17;;;;;;;4.00;2.35;;;;;;;;;;5033245;28;20030;-60
2022/05/18 19:22:15;;;;;;;2.88;2.20;;;;;;;;;;5034003;28;20025;-60
2022/05/18 19:24:49;;;;;;;3.05;2.20;;;;;;;;;;5032990;28;20038;-60
2022/05/18 19:30:48;;;;;;;2.90;2.40;;;;;;;;;;5033535;28;20044;-60
2022/05/18 19:33:31;;;;;;;2.92;2.25;;;;;;;;;;5011944;28;20433;-60
2022/05/18 19:36:26;;;;;;;3.08;2.03;;;;;;;;;;5048035;28;20525;-60
2022/05/18 19:42:24;;;;;;;3.63;2.15;;;;;;;;;;5010788;28;20099;-60
2022/05/18 19:45:20;;;;;;;5.15;2.55;;;;;;;;;;4995119;28;20091;-60
2022/05/18 19:48:47;;;;;;;;;;;;;;;;;;;;;
2022/05/18 19:50:59;;;;;;;;;;;;;;;;;;5029344;28;20029;-60
2022/05/18 19:53:48;;;;;;;2.85;1.85;;;;;;;;;;5034406;28;19905;-60
2022/05/18 19:56:25;;;;;;;3.67;2.55;;;;;;;;;;5033929;28;20025;-60
2022/05/18 19:59:15;;;;;;;4.95;2.60;;;;;;;;;;5033619;28;20024;-60
2022/05/18 20:08:40;;;;;;;3.58;2.00;;;;;;;;;;5055080;28;20044;-60
2022/05/18 20:11:14;;;;;;;2.45;2.10;;;;;;;;;;5051692;28;20112;-57
2022/05/18 20:13:55;;;;;;;4.88;2.60;;;;;;;;;;5056878;28;20116;-57
2022/05/18 20:16:38;;;;;;;3.72;2.20;;;;;;;;;;5056802;28;20082;-57
2022/05/18 20:19:20;;;;;;;6.38;2.35;;;;;;;;;;5056862;28;20035;-60
2022/05/18 20:22:07;;;;;;;5.47;2.08;;;;;;;;;;5036273;28;20129;-59
2022/05/18 20:27:54;;;;;;;5.15;1.90;;;;;;;;;;5057641;28;20116;-59
2022/05/18 20:30:30;;;;;;;3.35;2.30;;;;;;;;;;5057399;28;20521;-59
2022/05/18 20:33:03;;;;;;;2.95;2.22;;;;;;;;;;5039310;28;20033;-59
2022/05/18 20:38:36;;;;;;;3.70;2.65;;;;;;;;;;5037190;28;20029;-59
2022/05/18 20:41:21;;;;;;;3.53;2.40;;;;;;;;;;5057076;28;20501;-58
2022/05/18 20:43:59;;;;;;;6.75;2.72;;;;;;;;;;5039952;28;20057;-58
2022/05/18 20:46:51;;;;;;;2.45;1.70;;;;;;;;;;5039036;28;20036;-59
2022/05/18 20:49:46;;;;;;;3.42;2.15;;;;;;;;;;5054069;28;20025;-59
2022/05/18 20:52:53;;;;;;;5.38;2.58;;;;;;;;;;5032003;28;20040;-59
2022/05/18 20:55:40;;;;;;;3.72;2.45;;;;;;;;;;4995695;28;20045;-59
2022/05/18 20:58:22;;;;;;;3.75;2.20;;;;;;;;;;4988845;28;20440;-58
2022/05/18 21:00:52;;;;;;;3.67;2.17;;;;;;;;;;4996185;28;20054;-59
2022/05/18 21:03:48;;;;;;;3.05;1.88;;;;;;;;;;4984152;28;20564;-58
2022/05/18 21:06:56;;;;;;;2.47;1.92;;;;;;;;;;4991608;28;20030;-59
2022/05/18 21:09:33;;;;;;;7.40;2.60;;;;;;;;;;4961277;29;20076;-59
2022/05/18 21:12:26;;;;;;;4.03;2.40;;;;;;;;;;4961334;29;20039;-59
2022/05/18 21:14:53;;;;;;;2.85;2.00;;;;;;;;;;4943620;29;20457;-59
2022/05/18 21:23:30;;;;;;;6.70;2.08;;;;;;;;;;5021857;28;20038;-59
2022/05/18 21:26:08;;;;;;;3.22;2.50;;;;;;;;;;5003651;28;20033;-59
2022/05/18 21:29:19;;;;;;;3.28;2.15;;;;;;;;;;5021202;28;20045;-59
2022/05/18 21:32:05;;;;;;;2.83;2.20;;;;;;;;;;5002445;28;20080;-59
2022/05/18 21:35:11;;;;;;;4.47;2.35;;;;;;;;;;5021818;28;20056;-59
2022/05/18 21:38:06;;;;;;;2.63;1.95;;;;;;;;;;5015916;28;20025;-59
2022/05/18 21:41:02;;;;;;;;;;;;;;;;;;;;;
2022/05/18 21:43:50;;;;;;;4.18;2.90;;;;;;;;;;5022828;28;20082;-58
2022/05/18 21:46:47;;;;;;;3.67;2.45;;;;;;;;;;5022071;28;20034;-58
2022/05/18 21:49:17;;;;;;;3.60;1.98;;;;;;;;;;5005356;28;20041;-59
2022/05/18 21:51:53;;;;;;;3.30;2.72;;;;;;;;;;5004861;28;20042;-59
2022/05/18 22:01:02;;;;;;;3.63;2.22;;;;;;;;;;4995036;28;20034;-59
2022/05/18 22:04:13;;;;;;;3.55;2.42;;;;;;;;;;5034690;28;20482;-59
2022/05/18 22:07:02;;;;;;;3.08;2.50;;;;;;;;;;4985395;28;20042;-59
2022/05/18 22:09:47;;;;;;;3.27;2.00;;;;;;;;;;4999044;28;20453;-58
2022/05/18 22:12:43;;;;;;;3.85;2.72;;;;;;;;;;5001504;28;20065;-59
2022/05/18 22:15:19;;;;;;;2.25;1.90;;;;;;;;;;5002135;28;20034;-59
2022/05/18 22:18:01;;;;;;;4.82;2.35;;;;;;;;;;5037393;28;20037;-59